createdAt,value
2022-08-17T00:00:44.163Z,14.50
2022-08-17T00:03:13.604Z,14.50
2022-08-17T00:05:45.963Z,14.30
2022-08-17T00:08:16.475Z,14.50
2022-08-17T00:10:46.275Z,14.23
2022-08-17T00:13:19.298Z,14.07
2022-08-17T00:15:47.706Z,14.80
2022-08-17T00:19:02.080Z,15.10
2022-08-17T00:21:10.454Z,15.13
2022-08-17T00:23:47.684Z,14.43
2022-08-17T00:26:43.593Z,14.30
2022-08-17T00:29:07.992Z,15.70
2022-08-17T00:31:36.835Z,16.70
2022-08-17T00:34:08.817Z,14.90
2022-08-17T00:36:37.127Z,15.60
2022-08-17T00:39:06.607Z,16.27
2022-08-17T00:41:35.955Z,16.10
2022-08-17T00:44:10.159Z,16.63
2022-08-17T00:46:41.082Z,15.43
2022-08-17T00:49:12.963Z,15.97
2022-08-17T00:51:45.634Z,16.03
2022-08-17T00:54:16.261Z,16.20
2022-08-17T00:56:49.008Z,16.33
2022-08-17T00:59:21.642Z,15.97
2022-08-17T01:01:51.759Z,16.50
2022-08-17T01:04:24.064Z,17.13
2022-08-17T01:06:56.137Z,16.37
2022-08-17T01:09:24.759Z,16.97
2022-08-17T01:11:53.504Z,17.97
2022-08-17T01:14:23.067Z,17.43
2022-08-17T01:16:54.506Z,16.97
2022-08-17T01:19:26.673Z,18.23
2022-08-17T01:22:01.422Z,17.77
2022-08-17T01:24:33.762Z,17.33
2022-08-17T01:27:02.107Z,18.53
2022-08-17T01:29:32.261Z,19.43
2022-08-17T01:32:03.727Z,18.07
2022-08-17T01:34:38.059Z,18.97
2022-08-17T01:37:12.336Z,20.20
2022-08-17T01:39:45.446Z,18.67
2022-08-17T01:42:21.814Z,19.87
2022-08-17T01:44:52.955Z,19.50
2022-08-17T01:47:21.186Z,19.93
2022-08-17T01:49:50.594Z,20.33
2022-08-17T01:52:19.564Z,19.87
2022-08-17T01:54:51.798Z,19.80
2022-08-17T01:57:20.350Z,19.23
2022-08-17T01:59:48.545Z,18.83
2022-08-17T02:02:30.874Z,21.57
2022-08-17T02:05:00.409Z,19.90
2022-08-17T02:07:29.106Z,20.20
2022-08-17T02:09:58.942Z,21.00
2022-08-17T02:12:37.680Z,21.33
2022-08-17T02:15:10.004Z,19.97
2022-08-17T02:17:40.624Z,19.83
2022-08-17T02:20:10.235Z,19.90
2022-08-17T02:22:40.827Z,20.27
2022-08-17T02:25:12.931Z,22.13
2022-08-17T02:27:41.289Z,21.43
2022-08-17T02:31:02.093Z,21.83
2022-08-17T02:33:04.341Z,21.37
2022-08-17T02:35:34.941Z,20.43
2022-08-17T02:38:03.597Z,19.83
2022-08-17T02:40:36.623Z,22.33
2022-08-17T02:43:07.717Z,23.00
2022-08-17T02:45:36.136Z,22.53
2022-08-17T02:48:05.382Z,24.87
2022-08-17T02:50:33.679Z,23.90
2022-08-17T02:53:04.583Z,23.63
2022-08-17T02:55:37.618Z,22.53
2022-08-17T02:58:06.073Z,24.53
2022-08-17T03:00:36.968Z,24.27
2022-08-17T03:03:07.498Z,25.10
2022-08-17T03:05:37.527Z,22.03
2022-08-17T03:08:07.484Z,27.07
2022-08-17T03:10:43.033Z,27.37
2022-08-17T03:13:14.386Z,27.40
2022-08-17T03:15:45.332Z,26.37
2022-08-17T03:18:25.014Z,28.97
2022-08-17T03:20:56.861Z,28.20
2022-08-17T03:23:26.382Z,27.67
2022-08-17T03:25:57.028Z,29.67
2022-08-17T03:28:26.534Z,26.13
2022-08-17T03:30:54.873Z,26.27
2022-08-17T03:33:23.609Z,27.80
2022-08-17T03:35:52.666Z,27.87
2022-08-17T03:38:21.868Z,29.23
2022-08-17T03:40:56.512Z,27.40
2022-08-17T03:43:29.740Z,26.00
2022-08-17T03:46:33.917Z,28.20
2022-08-17T03:49:21.780Z,28.63
2022-08-17T03:52:07.715Z,30.63
2022-08-17T03:54:53.251Z,27.83
2022-08-17T03:57:22.656Z,30.03
2022-08-17T03:59:53.496Z,28.73
2022-08-17T04:02:25.720Z,26.97
2022-08-17T04:04:54.330Z,26.43
2022-08-17T04:07:25.721Z,26.67
2022-08-17T04:09:54.553Z,28.60
2022-08-17T04:12:24.364Z,28.33
2022-08-17T04:14:55.171Z,27.77
2022-08-17T04:17:25.679Z,27.97
2022-08-17T04:19:54.631Z,27.17
2022-08-17T04:22:31.347Z,26.97
2022-08-17T04:25:05.354Z,27.50
2022-08-17T04:27:33.777Z,25.57
2022-08-17T04:30:05.993Z,27.03
2022-08-17T04:33:04.130Z,25.53
2022-08-17T04:35:26.848Z,26.30
2022-08-17T04:37:55.365Z,25.93
2022-08-17T04:40:43.418Z,25.93
2022-08-17T04:43:14.160Z,24.57
2022-08-17T04:45:51.273Z,24.23
2022-08-17T04:48:35.676Z,23.97
2022-08-17T04:51:08.113Z,24.43
2022-08-17T04:53:36.571Z,24.77
2022-08-17T04:56:05.317Z,24.60
2022-08-17T04:58:33.629Z,26.07
2022-08-17T05:01:03.435Z,23.97
2022-08-17T05:03:32.070Z,23.90
2022-08-17T05:06:00.752Z,25.43
2022-08-17T05:08:29.045Z,24.83
2022-08-17T05:10:57.275Z,23.23
2022-08-17T05:13:29.307Z,23.67
2022-08-17T05:15:59.498Z,24.30
2022-08-17T05:18:30.824Z,23.87
2022-08-17T05:20:59.708Z,24.20
2022-08-17T05:23:41.698Z,23.77
2022-08-17T05:26:25.516Z,23.57
2022-08-17T05:28:55.066Z,24.33
2022-08-17T05:31:26.141Z,25.53
2022-08-17T05:33:56.267Z,24.83
2022-08-17T05:36:38.129Z,23.93
2022-08-17T05:39:16.507Z,23.97
2022-08-17T05:41:46.788Z,22.67
2022-08-17T05:44:15.552Z,22.63
2022-08-17T05:46:48.483Z,20.85
2022-08-17T05:49:23.094Z,22.27
2022-08-17T05:52:12.950Z,23.23
2022-08-17T05:54:58.763Z,22.42
2022-08-17T05:57:51.989Z,22.75
2022-08-17T06:00:26.483Z,22.33
2022-08-17T06:03:32.435Z,22.05
2022-08-17T06:06:18.190Z,21.05
2022-08-17T06:08:52.202Z,22.77
2022-08-17T06:11:31.158Z,22.17
2022-08-17T06:14:23.344Z,21.20
2022-08-17T06:16:56.555Z,21.30
2022-08-17T06:19:34.680Z,18.95
2022-08-17T06:22:06.019Z,20.87
2022-08-17T06:24:38.814Z,20.77
2022-08-17T06:27:14.791Z,20.70
2022-08-17T06:29:51.250Z,19.30
2022-08-17T06:32:20.109Z,19.90
2022-08-17T06:34:49.125Z,18.60
2022-08-17T06:37:34.063Z,18.77
2022-08-17T06:40:19.538Z,19.52
2022-08-17T06:43:05.822Z,18.77
2022-08-17T06:45:39.022Z,19.33
2022-08-17T06:48:14.496Z,19.02
2022-08-17T06:50:48.835Z,18.67
2022-08-17T06:53:25.243Z,17.23
2022-08-17T06:55:59.944Z,18.48
2022-08-17T06:58:31.764Z,17.60
2022-08-17T07:01:07.818Z,17.42
2022-08-17T07:03:41.146Z,17.10
2022-08-17T07:06:15.522Z,16.65
2022-08-17T07:08:57.196Z,16.88
2022-08-17T07:11:29.003Z,16.65
2022-08-17T07:14:07.496Z,15.50
2022-08-17T07:16:41.169Z,16.70
2022-08-17T07:19:11.294Z,17.98
2022-08-17T07:21:50.969Z,17.48
2022-08-17T07:24:33.318Z,16.13
2022-08-17T07:27:27.480Z,16.70
2022-08-17T07:29:59.501Z,16.23
2022-08-17T07:32:31.582Z,15.68
2022-08-17T07:35:16.404Z,15.57
2022-08-17T07:37:53.170Z,14.57
2022-08-17T07:40:31.263Z,14.70
2022-08-17T07:43:22.201Z,15.57
2022-08-17T07:46:34.063Z,15.65
2022-08-17T07:49:19.976Z,14.52
2022-08-17T07:52:23.922Z,14.45
2022-08-17T07:54:52.192Z,14.35
2022-08-17T07:57:36.888Z,14.57
2022-08-17T08:00:16.535Z,14.38
2022-08-17T08:02:59.062Z,14.02
2022-08-17T08:05:49.927Z,14.13
2022-08-17T08:08:31.320Z,14.48
2022-08-17T08:11:03.758Z,14.13
2022-08-17T08:13:35.627Z,13.10
2022-08-17T08:16:25.505Z,13.73
2022-08-17T08:18:57.801Z,12.98
2022-08-17T08:21:36.776Z,13.98
2022-08-17T08:24:36.611Z,12.60
2022-08-17T08:27:19.492Z,12.35
2022-08-17T08:29:55.585Z,12.68
2022-08-17T08:32:36.885Z,11.60
2022-08-17T08:35:09.763Z,11.23
2022-08-17T08:37:55.667Z,11.70
2022-08-17T08:40:38.761Z,11.35
2022-08-17T08:43:18.284Z,11.52
2022-08-17T08:45:56.918Z,11.65
2022-08-17T08:48:53.408Z,12.10
2022-08-17T08:51:37.960Z,11.82
2022-08-17T08:54:15.679Z,11.73
2022-08-17T08:57:19.773Z,11.52
2022-08-17T08:59:45.037Z,11.48
2022-08-17T09:02:46.927Z,11.85
2022-08-17T09:05:27.013Z,11.18
2022-08-17T09:08:04.758Z,11.63
2022-08-17T09:10:55.985Z,10.70
2022-08-17T09:13:32.840Z,11.52
2022-08-17T09:16:08.510Z,11.25
2022-08-17T09:19:00.285Z,10.85
2022-08-17T09:21:47.749Z,10.50
2022-08-17T09:24:24.566Z,11.35
2022-08-17T09:26:59.455Z,10.13
2022-08-17T09:29:32.633Z,10.52
2022-08-17T09:32:03.830Z,9.85
2022-08-17T09:34:39.753Z,9.75
2022-08-17T09:37:22.891Z,9.95
2022-08-17T09:39:59.456Z,9.65
2022-08-17T09:42:32.921Z,9.63
2022-08-17T09:45:12.930Z,9.93
2022-08-17T09:47:46.691Z,8.93
2022-08-17T09:51:03.984Z,9.70
2022-08-17T09:53:12.804Z,8.75
2022-08-17T09:55:58.093Z,7.93
2022-08-17T09:58:34.808Z,7.68
2022-08-17T10:01:18.078Z,7.10
2022-08-17T10:04:03.741Z,6.70
2022-08-17T10:06:38.853Z,7.40
2022-08-17T10:09:15.726Z,6.70
2022-08-17T10:12:06.719Z,7.40
2022-08-17T10:14:43.880Z,6.93
2022-08-17T10:17:22.224Z,6.63
2022-08-17T10:19:58.605Z,6.43
2022-08-17T10:22:53.405Z,6.53
2022-08-17T10:25:54.823Z,5.63
2022-08-17T10:28:29.725Z,6.13
2022-08-17T10:31:30.968Z,5.32
2022-08-17T10:34:04.149Z,5.63
2022-08-17T10:36:46.300Z,5.45
2022-08-17T10:39:27.587Z,5.70
2022-08-17T10:42:00.590Z,6.55
2022-08-17T10:44:42.741Z,5.10
2022-08-17T10:47:14.454Z,5.32
2022-08-17T10:49:48.242Z,5.55
2022-08-17T10:52:52.553Z,5.55
2022-08-17T10:55:25.861Z,4.97
2022-08-17T10:58:22.135Z,5.68
2022-08-17T11:01:13.085Z,5.47
2022-08-17T11:03:55.022Z,5.00
2022-08-17T11:06:33.535Z,5.32
2022-08-17T11:09:26.300Z,5.43
2022-08-17T11:12:16.633Z,5.53
2022-08-17T11:15:02.734Z,5.60
2022-08-17T11:17:50.845Z,5.65
2022-08-17T11:21:03.559Z,5.72
2022-08-17T11:24:07.956Z,5.10
2022-08-17T11:26:42.232Z,4.97
2022-08-17T11:29:24.660Z,4.90
2022-08-17T11:32:08.095Z,5.25
2022-08-17T11:34:41.238Z,5.57
2022-08-17T11:37:24.775Z,5.50
2022-08-17T11:40:26.424Z,5.72
2022-08-17T11:43:21.265Z,5.07
2022-08-17T11:46:12.207Z,5.60
2022-08-17T11:49:13.415Z,5.47
2022-08-17T11:52:13.136Z,5.40
2022-08-17T11:54:45.383Z,6.03
2022-08-17T11:58:01.934Z,5.75
2022-08-17T12:00:57.714Z,6.80
2022-08-17T12:03:55.306Z,6.25
2022-08-17T12:06:49.385Z,6.25
2022-08-17T12:09:25.186Z,6.45
2022-08-17T12:12:13.431Z,6.20
2022-08-17T12:17:41.389Z,6.22
2022-08-17T12:20:17.783Z,7.47
2022-08-17T12:22:54.910Z,8.13
2022-08-17T12:25:33.032Z,9.27
2022-08-17T12:28:06.304Z,10.00
2022-08-17T12:30:37.281Z,8.90
2022-08-17T12:33:12.773Z,9.38
2022-08-17T12:35:43.607Z,9.27
2022-08-17T12:38:32.056Z,9.50
2022-08-17T12:41:21.574Z,10.38
2022-08-17T12:44:02.278Z,8.43
2022-08-17T12:46:35.034Z,8.63
2022-08-17T12:49:26.505Z,8.27
2022-08-17T12:52:07.774Z,8.98
2022-08-17T12:54:53.043Z,8.80
2022-08-17T12:57:24.122Z,7.93
2022-08-17T12:59:58.381Z,7.53
2022-08-17T13:02:32.779Z,7.50
2022-08-17T13:05:02.373Z,7.20
2022-08-17T13:07:42.889Z,6.53
2022-08-17T13:10:19.133Z,6.20
2022-08-17T13:12:48.045Z,5.97
2022-08-17T13:15:23.347Z,6.13
2022-08-17T13:18:05.061Z,6.30
2022-08-17T13:20:36.338Z,6.40
2022-08-17T13:23:12.621Z,6.30
2022-08-17T13:25:41.261Z,6.28
2022-08-17T13:28:35.517Z,6.88
2022-08-17T13:31:27.908Z,6.80
2022-08-17T13:34:14.499Z,6.22
2022-08-17T13:36:44.342Z,5.43
2022-08-17T13:39:21.069Z,6.00
2022-08-17T13:41:50.727Z,6.55
2022-08-17T13:44:32.392Z,6.90
2022-08-17T13:47:02.029Z,6.85
2022-08-17T13:49:48.165Z,6.82
2022-08-17T13:52:34.765Z,6.70
2022-08-17T13:55:09.537Z,7.07
2022-08-17T13:57:38.618Z,7.20
2022-08-17T14:00:17.205Z,6.35
2022-08-17T14:02:45.576Z,6.47
2022-08-17T14:05:13.823Z,7.15
2022-08-17T14:07:42.346Z,7.35
2022-08-17T14:10:17.504Z,8.00
2022-08-17T14:12:46.555Z,7.03
2022-08-17T14:15:17.179Z,8.30
2022-08-17T14:17:45.912Z,8.07
2022-08-17T14:20:14.719Z,9.27
2022-08-17T14:22:47.301Z,9.02
2022-08-17T14:25:20.809Z,8.93
2022-08-17T14:27:53.018Z,8.38
2022-08-17T14:30:24.074Z,7.55
2022-08-17T14:32:53.252Z,8.27
2022-08-17T14:35:23.855Z,7.72
2022-08-17T14:37:53.031Z,7.40
2022-08-17T14:40:25.537Z,7.15
2022-08-17T14:42:55.302Z,6.60
2022-08-17T14:45:29.839Z,6.82
2022-08-17T14:48:02.985Z,5.97
2022-08-17T14:50:31.702Z,6.65
2022-08-17T14:53:01.561Z,6.32
2022-08-17T14:55:32.777Z,6.38
2022-08-17T14:58:01.016Z,6.32
2022-08-17T15:00:29.469Z,5.82
2022-08-17T15:03:00.213Z,5.35
2022-08-17T15:05:31.538Z,6.15
2022-08-17T15:08:00.632Z,6.82
2022-08-17T15:10:30.896Z,6.55
2022-08-17T15:13:00.275Z,6.13
2022-08-17T15:15:30.129Z,6.43
2022-08-17T15:18:00.000Z,6.75
2022-08-17T15:20:31.520Z,6.10
2022-08-17T15:23:00.415Z,6.63
2022-08-17T15:25:31.923Z,6.25
2022-08-17T15:28:01.791Z,6.60
2022-08-17T15:30:30.962Z,6.53
2022-08-17T15:33:00.715Z,6.60
2022-08-17T15:35:31.785Z,6.18
2022-08-17T15:38:08.038Z,6.22
2022-08-17T15:40:43.366Z,6.53
2022-08-17T15:43:14.733Z,6.28
2022-08-17T15:45:43.309Z,6.80
2022-08-17T15:48:14.313Z,7.13
2022-08-17T15:50:42.940Z,6.90
2022-08-17T15:53:11.969Z,6.85
2022-08-17T15:55:43.980Z,7.07
2022-08-17T15:58:12.514Z,7.03
2022-08-17T16:00:53.345Z,7.05
2022-08-17T16:04:01.513Z,7.45
2022-08-17T16:06:19.993Z,6.03
2022-08-17T16:08:48.566Z,7.22
2022-08-17T16:11:19.737Z,7.68
2022-08-17T16:13:54.794Z,6.57
2022-08-17T16:16:24.841Z,7.20
2022-08-17T16:18:54.726Z,7.60
2022-08-17T16:21:29.653Z,7.43
2022-08-17T16:24:01.232Z,7.45
2022-08-17T16:26:33.437Z,7.30
2022-08-17T16:29:03.742Z,7.13
2022-08-17T16:31:32.288Z,7.32
2022-08-17T16:34:16.699Z,7.68
2022-08-17T16:36:55.583Z,7.88
2022-08-17T16:39:29.610Z,7.20
2022-08-17T16:42:00.352Z,7.65
2022-08-17T16:44:32.217Z,6.28
2022-08-17T16:47:01.941Z,6.82
2022-08-17T16:49:36.713Z,6.75
2022-08-17T16:52:10.314Z,6.97
2022-08-17T16:54:41.885Z,7.20
2022-08-17T16:57:11.829Z,7.03
2022-08-17T16:59:43.782Z,6.70
2022-08-17T17:02:17.608Z,7.50
2022-08-17T17:04:52.554Z,7.10
2022-08-17T17:07:50.097Z,6.88
2022-08-17T17:10:22.101Z,6.95
2022-08-17T17:13:03.866Z,6.88
2022-08-17T17:15:44.779Z,7.38
2022-08-17T17:18:15.536Z,7.38
2022-08-17T17:20:50.735Z,7.97
2022-08-17T17:23:32.773Z,7.85
2022-08-17T17:26:10.980Z,7.47
2022-08-17T17:28:57.288Z,8.23
2022-08-17T17:31:31.819Z,8.38
2022-08-17T17:34:06.006Z,8.43
2022-08-17T17:36:40.650Z,8.57
2022-08-17T17:39:13.860Z,8.77
2022-08-17T17:41:48.291Z,8.23
2022-08-17T17:44:21.140Z,8.27
2022-08-17T17:46:52.482Z,8.00
2022-08-17T17:49:21.317Z,8.75
2022-08-17T17:52:11.059Z,8.23
2022-08-17T17:55:00.136Z,8.60
2022-08-17T17:57:39.405Z,8.88
2022-08-17T18:00:14.129Z,8.00
2022-08-17T18:02:58.321Z,9.10
2022-08-17T18:05:44.535Z,8.85
2022-08-17T18:08:32.095Z,8.45
2022-08-17T18:11:12.515Z,8.98
2022-08-17T18:13:57.660Z,9.73
2022-08-17T18:16:32.133Z,9.52
2022-08-17T18:19:01.802Z,8.88
2022-08-17T18:21:36.398Z,9.00
2022-08-17T18:24:08.414Z,9.18
2022-08-17T18:26:48.908Z,9.30
2022-08-17T18:29:31.694Z,9.23
2022-08-17T18:32:33.833Z,10.05
2022-08-17T18:35:30.717Z,10.07
2022-08-17T18:38:20.857Z,11.48
2022-08-17T18:41:00.591Z,10.75
2022-08-17T18:43:36.484Z,10.32
2022-08-17T18:46:28.681Z,11.00
2022-08-17T18:49:01.344Z,10.75
2022-08-17T18:51:42.269Z,11.23
2022-08-17T18:54:18.873Z,10.57
2022-08-17T18:56:53.377Z,10.70
2022-08-17T18:59:28.268Z,11.52
2022-08-17T19:02:15.337Z,10.50
2022-08-17T19:05:08.081Z,11.63
2022-08-17T19:07:39.520Z,11.75
2022-08-17T19:10:19.244Z,11.75
2022-08-17T19:12:52.738Z,12.73
2022-08-17T19:15:34.299Z,12.80
2022-08-17T19:18:10.908Z,12.30
2022-08-17T19:20:48.242Z,11.93
2022-08-17T19:23:24.440Z,12.75
2022-08-17T19:25:55.434Z,13.25
2022-08-17T19:28:30.800Z,12.10
2022-08-17T19:31:01.987Z,12.88
2022-08-17T19:33:32.170Z,12.43
2022-08-17T19:36:07.355Z,12.68
2022-08-17T19:38:46.983Z,12.77
2022-08-17T19:41:23.662Z,13.25
2022-08-17T19:44:13.517Z,12.05
2022-08-17T19:46:50.642Z,12.25
2022-08-17T19:49:41.202Z,13.23
2022-08-17T19:52:37.470Z,12.93
2022-08-17T19:55:19.847Z,12.35
2022-08-17T19:58:02.182Z,14.13
2022-08-17T20:00:32.376Z,13.52
2022-08-17T20:03:06.533Z,13.38
2022-08-17T20:05:54.604Z,14.60
2022-08-17T20:08:32.602Z,12.90
2022-08-17T20:11:09.155Z,14.67
2022-08-17T20:13:41.773Z,14.57
2022-08-17T20:16:12.526Z,13.97
2022-08-17T20:18:55.253Z,13.77
2022-08-17T20:21:31.147Z,14.47
2022-08-17T20:24:06.965Z,14.43
2022-08-17T20:26:55.539Z,15.23
2022-08-17T20:29:37.147Z,14.48
2022-08-17T20:32:38.649Z,14.35
2022-08-17T20:35:22.417Z,14.75
2022-08-17T20:37:57.462Z,14.27
2022-08-17T20:40:31.868Z,15.90
2022-08-17T20:43:21.048Z,16.23
2022-08-17T20:46:13.013Z,15.83
2022-08-17T20:48:45.441Z,15.27
2022-08-17T20:51:27.166Z,15.60
2022-08-17T20:54:04.583Z,15.13
2022-08-17T20:56:57.448Z,16.50
2022-08-17T20:59:57.687Z,15.53
2022-08-17T21:02:28.809Z,16.43
2022-08-17T21:05:30.030Z,15.63
2022-08-17T21:08:02.379Z,16.50
2022-08-17T21:10:40.631Z,16.63
2022-08-17T21:13:53.181Z,17.30
2022-08-17T21:16:32.435Z,17.47
2022-08-17T21:19:10.896Z,17.83
2022-08-17T21:21:48.313Z,17.00
2022-08-17T21:24:27.555Z,17.70
2022-08-17T21:27:08.480Z,17.17
2022-08-17T21:29:53.956Z,16.47
2022-08-17T21:32:31.615Z,17.37
2022-08-17T21:35:22.558Z,16.80
2022-08-17T21:37:53.310Z,15.77
2022-08-17T21:40:26.753Z,15.47
2022-08-17T21:42:58.310Z,15.23
2022-08-17T21:45:31.648Z,15.20
2022-08-17T21:48:14.001Z,16.27
2022-08-17T21:50:44.783Z,15.07
2022-08-17T21:53:32.878Z,15.30
2022-08-17T21:56:02.063Z,15.67
2022-08-17T21:58:34.597Z,15.47
2022-08-17T22:01:23.878Z,15.77
2022-08-17T22:04:02.491Z,15.70
2022-08-17T22:06:36.268Z,15.20
2022-08-17T22:09:13.969Z,15.57
2022-08-17T22:12:01.773Z,16.43
2022-08-17T22:14:53.345Z,15.37
2022-08-17T22:17:26.055Z,15.83
2022-08-17T22:19:58.103Z,16.00
2022-08-17T22:22:34.325Z,15.53
2022-08-17T22:25:05.763Z,15.23
2022-08-17T22:27:52.226Z,16.10
2022-08-17T22:30:35.185Z,16.30
2022-08-17T22:33:32.448Z,16.63
2022-08-17T22:36:22.000Z,16.83
2022-08-17T22:38:51.750Z,16.90
2022-08-17T22:41:40.900Z,16.43
2022-08-17T22:44:17.246Z,14.57
2022-08-17T22:46:58.032Z,17.70
2022-08-17T22:49:30.692Z,16.73
2022-08-17T22:52:05.120Z,17.23
2022-08-17T22:54:51.424Z,15.77
2022-08-17T22:57:38.858Z,17.70
2022-08-17T23:00:34.493Z,17.73
2022-08-17T23:03:15.794Z,18.50
2022-08-17T23:05:47.625Z,17.57
2022-08-17T23:08:21.256Z,16.80
2022-08-17T23:10:50.311Z,16.67
2022-08-17T23:13:18.605Z,16.30
2022-08-17T23:15:49.877Z,17.03
2022-08-17T23:18:18.286Z,18.23
2022-08-17T23:20:46.935Z,18.43
2022-08-17T23:23:18.018Z,17.10
2022-08-17T23:25:49.381Z,17.97
2022-08-17T23:28:17.642Z,18.40
2022-08-17T23:30:48.457Z,18.60
2022-08-17T23:33:21.484Z,18.83
2022-08-17T23:35:49.658Z,17.67
2022-08-17T23:38:18.193Z,17.77
2022-08-17T23:40:46.932Z,18.00
2022-08-17T23:43:24.560Z,17.87
2022-08-17T23:45:57.652Z,20.77
2022-08-17T23:48:34.130Z,21.00
2022-08-17T23:51:09.619Z,20.47
2022-08-17T23:53:41.913Z,18.00
2022-08-17T23:56:11.830Z,19.80
2022-08-17T23:58:42.129Z,18.67
